Time,TemperatureF,DewpointF,PressureIn,WindDirection,WindDirectionDegrees,WindSpeedMPH,WindSpeedGustMPH,Humidity,HourlyPrecipIn,Conditions,Clouds,dailyrainin,SolarRadiationWatts/m^2,SoftwareType,DateUTC
2013-07-04 00:06:00,58.6,57.0,29.97,East,90,0.0,1.0,94,0.00,,,0.00,0,weatherlink.com 1.10,2013-07-04 05:06:00,
2013-07-04 00:21:00,58.5,57.0,29.97,East,90,1.0,2.0,95,0.00,,,0.00,0,weatherlink.com 1.10,2013-07-04 05:21:00,
2013-07-04 00:36:00,58.2,57.0,29.97,East,90,2.0,2.0,95,0.00,,,0.00,0,weatherlink.com 1.10,2013-07-04 05:36:00,
2013-07-04 00:51:00,57.5,56.0,29.97,East,90,2.0,3.0,95,0.00,,,0.00,0,weatherlink.com 1.10,2013-07-04 05:51:00,
2013-07-04 01:06:00,56.6,55.0,29.97,East,90,5.0,6.0,94,0.00,,,0.00,0,weatherlink.com 1.10,2013-07-04 06:06:00,
2013-07-04 01:21:00,57.0,56.0,29.97,East,90,2.0,5.0,95,0.00,,,0.00,0,weatherlink.com 1.10,2013-07-04 06:21:00,
2013-07-04 01:36:00,56.2,55.0,29.97,East,90,0.0,2.0,95,0.00,,,0.00,0,weatherlink.com 1.10,2013-07-04 06:36:00,
2013-07-04 01:51:00,55.3,54.0,29.97,East,90,5.0,6.0,95,0.00,,,0.00,0,weatherlink.com 1.10,2013-07-04 06:51:00,
2013-07-04 02:06:00,55.7,55.0,29.97,East,90,3.0,5.0,96,0.00,,,0.00,0,weatherlink.com 1.10,2013-07-04 07:06:00,
2013-07-04 02:21:00,55.5,54.0,29.96,East,90,3.0,5.0,95,0.00,,,0.00,0,weatherlink.com 1.10,2013-07-04 07:21:00,
2013-07-04 02:36:00,55.4,54.0,29.96,East,90,3.0,5.0,96,0.00,,,0.00,0,weatherlink.com 1.10,2013-07-04 07:36:00,
2013-07-04 02:51:00,54.9,54.0,29.96,East,90,2.0,5.0,96,0.00,,,0.00,0,weatherlink.com 1.10,2013-07-04 07:51:00,
2013-07-04 03:06:00,54.5,53.0,29.97,East,90,1.0,3.0,96,0.00,,,0.00,0,weatherlink.com 1.10,2013-07-04 08:06:00,
2013-07-04 03:21:00,53.6,52.0,29.97,East,90,1.0,3.0,95,0.00,,,0.00,0,weatherlink.com 1.10,2013-07-04 08:21:00,
2013-07-04 03:36:00,53.7,53.0,29.97,East,90,3.0,3.0,96,0.00,,,0.00,0,weatherlink.com 1.10,2013-07-04 08:36:00,
2013-07-04 03:51:00,53.5,52.0,29.97,East,90,0.0,5.0,96,0.00,,,0.00,0,weatherlink.com 1.10,2013-07-04 08:51:00,
2013-07-04 04:06:00,54.0,53.0,29.97,East,90,0.0,0.0,97,0.00,,,0.00,0,weatherlink.com 1.10,2013-07-04 09:06:00,
2013-07-04 04:21:00,54.1,53.0,29.97,East,90,3.0,5.0,96,0.00,,,0.00,0,weatherlink.com 1.10,2013-07-04 09:21:00,
2013-07-04 04:36:00,53.6,53.0,29.98,East,90,2.0,3.0,96,0.00,,,0.00,0,weatherlink.com 1.10,2013-07-04 09:36:00,
2013-07-04 04:51:00,53.8,53.0,29.98,East,90,0.0,2.0,96,0.00,,,0.00,0,weatherlink.com 1.10,2013-07-04 09:51:00,
2013-07-04 05:06:00,54.2,53.0,29.98,East,90,1.0,2.0,97,0.00,,,0.00,0,weatherlink.com 1.10,2013-07-04 10:06:00,
2013-07-04 05:21:00,53.5,52.0,29.99,East,90,2.0,3.0,96,0.00,,,0.00,0,weatherlink.com 1.10,2013-07-04 10:21:00,
2013-07-04 05:36:00,51.9,51.0,29.99,East,90,5.0,6.0,96,0.01,,,0.01,9,weatherlink.com 1.10,2013-07-04 10:36:00,
2013-07-04 05:51:00,52.2,51.0,29.99,East,90,5.0,6.0,96,0.01,,,0.01,18,weatherlink.com 1.10,2013-07-04 10:51:00,
2013-07-04 06:06:00,52.9,52.0,29.99,East,90,3.0,5.0,97,0.01,,,0.01,54,weatherlink.com 1.10,2013-07-04 11:06:00,
2013-07-04 06:22:00,53.7,53.0,29.99,East,90,2.0,2.0,97,0.01,,,0.01,88,weatherlink.com 1.10,2013-07-04 11:22:00,
2013-07-04 06:37:00,55.7,55.0,29.99,East,90,1.0,3.0,97,0.00,,,0.01,118,weatherlink.com 1.10,2013-07-04 11:37:00,
2013-07-04 06:52:00,58.2,58.0,30.00,East,90,0.0,0.0,98,0.00,,,0.01,149,weatherlink.com 1.10,2013-07-04 11:52:00,
2013-07-04 07:07:00,59.4,59.0,29.99,East,90,0.0,2.0,98,0.00,,,0.01,188,weatherlink.com 1.10,2013-07-04 12:07:00,
2013-07-04 07:22:00,60.7,60.0,30.00,East,90,0.0,5.0,97,0.00,,,0.01,225,weatherlink.com 1.10,2013-07-04 12:22:00,
2013-07-04 07:37:00,61.8,61.0,30.00,East,90,0.0,3.0,97,0.00,,,0.01,265,weatherlink.com 1.10,2013-07-04 12:37:00,
2013-07-04 07:52:00,63.4,62.0,30.00,East,90,0.0,2.0,95,0.00,,,0.01,309,weatherlink.com 1.10,2013-07-04 12:52:00,
2013-07-04 08:07:00,65.0,62.0,30.00,East,90,3.0,6.0,90,0.00,,,0.01,357,weatherlink.com 1.10,2013-07-04 13:07:00,
2013-07-04 08:22:00,66.5,63.0,30.00,East,90,3.0,5.0,87,0.00,,,0.01,411,weatherlink.com 1.10,2013-07-04 13:22:00,
2013-07-04 08:37:00,67.9,63.0,30.00,East,90,5.0,7.0,83,0.00,,,0.01,454,weatherlink.com 1.10,2013-07-04 13:37:00,
2013-07-04 08:52:00,69.2,62.0,30.00,SE,145,3.0,6.0,78,0.00,,,0.01,499,weatherlink.com 1.10,2013-07-04 13:52:00,
2013-07-04 09:07:00,70.5,62.0,30.00,South,172,5.0,8.0,75,0.00,,,0.01,543,weatherlink.com 1.10,2013-07-04 14:07:00,
2013-07-04 09:22:00,71.6,62.0,30.00,South,182,5.0,8.0,71,0.00,,,0.01,582,weatherlink.com 1.10,2013-07-04 14:22:00,
2013-07-04 09:37:00,72.7,62.0,29.99,SSE,160,3.0,7.0,69,0.00,,,0.01,621,weatherlink.com 1.10,2013-07-04 14:37:00,
2013-07-04 09:52:00,74.1,63.0,29.99,SSE,160,1.0,4.0,69,0.00,,,0.01,664,weatherlink.com 1.10,2013-07-04 14:52:00,
2013-07-04 10:07:00,75.1,64.0,29.98,SSE,158,2.0,5.0,68,0.00,,,0.01,701,weatherlink.com 1.10,2013-07-04 15:07:00,
2013-07-04 10:22:00,76.1,64.0,29.98,SSE,153,1.0,5.0,67,0.00,,,0.01,733,weatherlink.com 1.10,2013-07-04 15:22:00,
2013-07-04 10:37:00,76.8,64.0,29.98,SSE,154,2.0,6.0,65,0.00,,,0.01,763,weatherlink.com 1.10,2013-07-04 15:37:00,
2013-07-04 10:52:00,77.1,64.0,29.98,SE,124,2.0,6.0,65,0.00,,,0.01,789,weatherlink.com 1.10,2013-07-04 15:52:00,
2013-07-04 11:07:00,77.5,62.0,29.98,SE,143,3.0,8.0,60,0.00,,,0.01,821,weatherlink.com 1.10,2013-07-04 16:07:00,
2013-07-04 11:22:00,78.0,62.0,29.98,ESE,117,0.0,6.0,58,0.00,,,0.01,846,weatherlink.com 1.10,2013-07-04 16:22:00,
2013-07-04 11:37:00,78.3,62.0,29.98,SE,138,2.0,8.0,57,0.00,,,0.01,870,weatherlink.com 1.10,2013-07-04 16:37:00,
2013-07-04 11:52:00,78.7,62.0,29.98,SW,216,4.0,8.0,57,0.00,,,0.01,923,weatherlink.com 1.10,2013-07-04 16:52:00,
2013-07-04 12:07:00,78.9,63.0,29.97,South,186,3.0,6.0,59,0.00,,,0.01,965,weatherlink.com 1.10,2013-07-04 17:07:00,
2013-07-04 12:22:00,79.2,62.0,29.97,SE,134,1.0,11.0,56,0.00,,,0.01,1013,weatherlink.com 1.10,2013-07-04 17:22:00,
2013-07-04 12:38:00,78.3,63.0,29.97,SSE,158,4.0,13.0,60,0.00,,,0.01,221,weatherlink.com 1.10,2013-07-04 17:38:00,
2013-07-04 12:53:00,77.8,64.0,29.97,SSE,155,7.0,9.0,63,0.00,,,0.01,292,weatherlink.com 1.10,2013-07-04 17:53:00,
2013-07-04 13:08:00,78.0,63.0,29.97,South,178,4.0,11.0,60,0.00,,,0.01,251,weatherlink.com 1.10,2013-07-04 18:08:00,
2013-07-04 13:23:00,78.7,64.0,29.96,South,184,5.0,10.0,61,0.00,,,0.01,1027,weatherlink.com 1.10,2013-07-04 18:23:00,
2013-07-04 13:38:00,79.8,63.0,29.96,SSE,168,5.0,13.0,56,0.00,,,0.01,1009,weatherlink.com 1.10,2013-07-04 18:38:00,
2013-07-04 13:53:00,80.2,64.0,29.95,South,176,12.0,13.0,58,0.00,,,0.01,1060,weatherlink.com 1.10,2013-07-04 18:53:00,
2013-07-04 14:08:00,80.4,65.0,29.95,SSW,210,7.0,12.0,59,0.00,,,0.01,1004,weatherlink.com 1.10,2013-07-04 19:08:00,
2013-07-04 14:23:00,79.9,66.0,29.95,SSW,194,10.0,17.0,62,0.00,,,0.01,1004,weatherlink.com 1.10,2013-07-04 19:23:00,
2013-07-04 14:38:00,81.0,65.0,29.95,SSE,157,6.0,11.0,58,0.00,,,0.01,962,weatherlink.com 1.10,2013-07-04 19:38:00,
2013-07-04 14:53:00,80.8,63.0,29.95,South,173,10.0,11.0,55,0.00,,,0.01,313,weatherlink.com 1.10,2013-07-04 19:53:00,
2013-07-04 15:08:00,80.2,65.0,29.95,SSE,167,8.0,13.0,60,0.00,,,0.01,960,weatherlink.com 1.10,2013-07-04 20:08:00,
2013-07-04 15:23:00,80.0,64.0,29.94,South,190,8.0,13.0,58,0.00,,,0.01,355,weatherlink.com 1.10,2013-07-04 20:23:00,
2013-07-04 15:38:00,79.9,64.0,29.94,South,188,13.0,14.0,59,0.00,,,0.01,939,weatherlink.com 1.10,2013-07-04 20:38:00,
2013-07-04 15:53:00,80.4,65.0,29.94,SSE,166,10.0,13.0,60,0.00,,,0.01,937,weatherlink.com 1.10,2013-07-04 20:53:00,
2013-07-04 16:08:00,80.9,65.0,29.94,SSW,200,13.0,16.0,59,0.00,,,0.01,773,weatherlink.com 1.10,2013-07-04 21:08:00,
2013-07-04 16:23:00,81.0,63.0,29.94,SW,216,5.0,12.0,55,0.00,,,0.01,696,weatherlink.com 1.10,2013-07-04 21:23:00,
2013-07-04 16:38:00,81.3,66.0,29.94,SSW,196,5.0,13.0,59,0.00,,,0.01,728,weatherlink.com 1.10,2013-07-04 21:38:00,
2013-07-04 16:53:00,79.9,62.0,29.94,SSW,211,10.0,14.0,55,0.00,,,0.01,250,weatherlink.com 1.10,2013-07-04 21:53:00,
2013-07-04 17:08:00,80.0,63.0,29.93,SSW,209,7.0,14.0,57,0.00,,,0.01,580,weatherlink.com 1.10,2013-07-04 22:08:00,
2013-07-04 17:23:00,79.7,63.0,29.93,SSW,193,9.0,12.0,57,0.00,,,0.01,100,weatherlink.com 1.10,2013-07-04 22:23:00,
2013-07-04 17:38:00,80.1,63.0,29.93,SSW,212,8.0,13.0,57,0.00,,,0.01,461,weatherlink.com 1.10,2013-07-04 22:38:00,
2013-07-04 17:53:00,79.7,64.0,29.92,South,180,11.0,13.0,58,0.00,,,0.01,408,weatherlink.com 1.10,2013-07-04 22:53:00,
2013-07-04 18:08:00,79.8,63.0,29.92,South,188,9.0,12.0,56,0.00,,,0.01,350,weatherlink.com 1.10,2013-07-04 23:08:00,
2013-07-04 18:23:00,79.9,64.0,29.92,SSE,165,8.0,9.0,58,0.00,,,0.01,309,weatherlink.com 1.10,2013-07-04 23:23:00,
2013-07-04 18:38:00,79.6,63.0,29.92,South,184,8.0,10.0,57,0.00,,,0.01,269,weatherlink.com 1.10,2013-07-04 23:38:00,
2013-07-04 18:53:00,79.5,64.0,29.91,South,182,6.0,6.0,59,0.00,,,0.01,220,weatherlink.com 1.10,2013-07-04 23:53:00,
2013-07-04 19:08:00,78.9,66.0,29.91,South,182,4.0,5.0,64,0.00,,,0.01,174,weatherlink.com 1.10,2013-07-05 00:08:00,
2013-07-04 19:23:00,78.0,66.0,29.91,South,182,3.0,4.0,66,0.00,,,0.01,137,weatherlink.com 1.10,2013-07-05 00:23:00,
2013-07-04 19:38:00,76.9,66.0,29.91,South,182,3.0,4.0,70,0.00,,,0.01,100,weatherlink.com 1.10,2013-07-05 00:38:00,
2013-07-04 19:53:00,75.4,67.0,29.91,South,182,4.0,5.0,74,0.00,,,0.01,63,weatherlink.com 1.10,2013-07-05 00:53:00,
2013-07-04 20:08:00,73.9,66.0,29.91,South,182,4.0,5.0,77,0.00,,,0.01,33,weatherlink.com 1.10,2013-07-05 01:08:00,
2013-07-04 20:23:00,72.0,65.0,29.91,South,182,4.0,5.0,78,0.00,,,0.01,16,weatherlink.com 1.10,2013-07-05 01:23:00,
2013-07-04 20:38:00,70.8,64.0,29.91,South,182,2.0,3.0,80,0.00,,,0.01,5,weatherlink.com 1.10,2013-07-05 01:38:00,
2013-07-04 20:53:00,70.2,64.0,29.91,South,182,0.0,2.0,81,0.00,,,0.01,0,weatherlink.com 1.10,2013-07-05 01:53:00,
2013-07-04 21:08:00,69.5,63.0,29.91,South,182,3.0,3.0,81,0.00,,,0.01,0,weatherlink.com 1.10,2013-07-05 02:08:00,
2013-07-04 21:23:00,68.5,63.0,29.91,South,182,0.0,2.0,82,0.00,,,0.01,0,weatherlink.com 1.10,2013-07-05 02:23:00,
2013-07-04 21:38:00,67.6,63.0,29.92,South,182,0.0,0.0,84,0.00,,,0.01,0,weatherlink.com 1.10,2013-07-05 02:38:00,
2013-07-04 21:53:00,67.3,63.0,29.92,South,182,0.0,1.0,85,0.00,,,0.01,0,weatherlink.com 1.10,2013-07-05 02:53:00,
2013-07-04 22:08:00,65.8,62.0,29.93,South,182,1.0,3.0,86,0.00,,,0.01,0,weatherlink.com 1.10,2013-07-05 03:08:00,
2013-07-04 22:23:00,65.1,62.0,29.93,South,182,4.0,5.0,88,0.00,,,0.01,0,weatherlink.com 1.10,2013-07-05 03:23:00,
2013-07-04 22:38:00,64.5,61.0,29.93,South,182,3.0,4.0,89,0.00,,,0.01,0,weatherlink.com 1.10,2013-07-05 03:38:00,
2013-07-04 22:53:00,64.3,61.0,29.93,South,182,0.0,2.0,90,0.00,,,0.01,0,weatherlink.com 1.10,2013-07-05 03:53:00,
2013-07-04 23:08:00,64.0,61.0,29.93,South,182,0.0,2.0,90,0.00,,,0.01,0,weatherlink.com 1.10,2013-07-05 04:08:00,
2013-07-04 23:23:00,63.8,61.0,29.93,South,182,1.0,3.0,90,0.00,,,0.01,0,weatherlink.com 1.10,2013-07-05 04:23:00,
2013-07-04 23:38:00,63.5,61.0,29.93,South,182,2.0,3.0,91,0.00,,,0.01,0,weatherlink.com 1.10,2013-07-05 04:38:00,
2013-07-04 23:53:00,63.1,60.0,29.93,South,182,4.0,5.0,90,0.00,,,0.01,0,weatherlink.com 1.10,2013-07-05 04:53:00,